PWSweather.com
Personal Weather Stations
Station Observations
SANDHURSTWX
SandhurstGB

SandhurstGB

Lat: 51.3522, Lon: -0.7739

Elevation: 272.3

Station Type: Davis VP2

www.sandhurstweather.org.uk

High Low Average
Temperature 58.7°F14.8°C 36.8°F2.7°C 47.5°F8.6°C
Dew Point 42.5°F5.8°C 34.4°F1.3°C 38.6°F3.7°C
Winds 8.1 mph 13.0 kmh Calm Calm 3.0 mph E4.8 kmh E
Wind Gusts 15.0 mph24.1 kmh -- 6.0 mph9.7 kmh
Humidity 93% 52% 73%
Pressure 30.26 in1024.7 mb 29.87 in1011.5 mb -
Precipitation 0.00 in0.0 mm - -
Hour Temp Dew Point Humidity Winds Wind Gusts Pressure Precip Precip Rate Daily Precip Total
12:00 AM 41.2°F5.1°C 36.4°F2.4°C 83% 2.3 mph NE3.7 kmh NE 4.6 mph7.4 kmh 30.26 in1024.7 mb - 0.00 in0.0 mm 0.00 in0.0 mm
01:00 AM 41.2°F5.1°C 36.8°F2.7°C 84% 3.5 mph ENE5.6 kmh ENE 3.5 mph5.6 kmh 30.25 in1024.4 mb - 0.00 in0.0 mm 0.00 in0.0 mm
02:00 AM 40.0°F4.4°C 36.2°F2.3°C 86% 2.3 mph NE3.7 kmh NE 4.6 mph7.4 kmh 30.24 in1024.0 mb - 0.00 in0.0 mm 0.00 in0.0 mm
03:00 AM 38.8°F3.8°C 35.8°F2.1°C 89% 2.3 mph ENE3.7 kmh ENE 2.3 mph3.7 kmh 30.23 in1023.7 mb - 0.00 in0.0 mm 0.00 in0.0 mm
04:00 AM 37.6°F3.1°C 34.9°F1.6°C 90% 3.5 mph NE5.6 kmh NE 5.8 mph9.3 kmh 30.21 in1023.0 mb - 0.00 in0.0 mm 0.00 in0.0 mm
05:00 AM 36.8°F2.7°C 34.4°F1.3°C 91% 1.2 mph ENE1.9 kmh ENE 3.5 mph5.6 kmh 30.20 in1022.7 mb - 0.00 in0.0 mm 0.00 in0.0 mm
07:00 AM 37.7°F3.2°C 35.9°F2.2°C 93% 3.5 mph NE5.6 kmh NE 10.4 mph16.7 kmh 30.20 in1022.7 mb - 0.00 in0.0 mm 0.00 in0.0 mm
08:00 AM 41.5°F5.3°C 38.2°F3.4°C 88% 3.5 mph NE5.6 kmh NE 6.9 mph11.1 kmh 30.18 in1022.0 mb - 0.00 in0.0 mm 0.00 in0.0 mm
09:00 AM 46.7°F8.2°C 40.2°F4.6°C 78% 8.1 mph E13.0 kmh E 11.5 mph18.5 kmh 30.18 in1022.0 mb - 0.00 in0.0 mm 0.00 in0.0 mm
10:00 AM 51.6°F10.9°C 41.0°F5.0°C 67% 8.1 mph E13.0 kmh E 15.0 mph24.1 kmh 30.16 in1021.3 mb - 0.00 in0.0 mm 0.00 in0.0 mm
11:00 AM 53.6°F12.0°C 40.9°F4.9°C 62% 3.5 mph SE5.6 kmh SE 10.4 mph16.7 kmh 30.13 in1020.3 mb - 0.00 in0.0 mm 0.00 in0.0 mm
12:00 PM 55.5°F13.1°C 40.9°F4.9°C 58% 6.9 mph ESE11.1 kmh ESE 9.2 mph14.8 kmh 30.11 in1019.6 mb - 0.00 in0.0 mm 0.00 in0.0 mm
01:00 PM 57.6°F14.2°C 42.5°F5.8°C 57% 4.6 mph ENE7.4 kmh ENE 8.1 mph13.0 kmh 30.08 in1018.6 mb - 0.00 in0.0 mm 0.00 in0.0 mm
02:00 PM 58.6°F14.8°C 42.0°F5.6°C 54% 3.5 mph ESE5.6 kmh ESE 6.9 mph11.1 kmh 30.05 in1017.6 mb - 0.00 in0.0 mm 0.00 in0.0 mm
03:00 PM 58.2°F14.6°C 40.6°F4.8°C 52% 5.8 mph E9.3 kmh E 9.2 mph14.8 kmh 30.02 in1016.6 mb - 0.00 in0.0 mm 0.00 in0.0 mm
04:00 PM 58.7°F14.8°C 41.1°F5.1°C 52% 1.2 mph NE1.9 kmh NE 1.2 mph1.9 kmh 30.00 in1015.9 mb - 0.00 in0.0 mm 0.00 in0.0 mm
05:00 PM 56.1°F13.4°C 40.6°F4.8°C 56% 3.5 mph E5.6 kmh E 8.1 mph13.0 kmh 29.98 in1015.2 mb - 0.00 in0.0 mm 0.00 in0.0 mm
06:00 PM 53.9°F12.2°C 40.8°F4.9°C 61% 3.5 mph ENE5.6 kmh ENE 6.9 mph11.1 kmh 29.96 in1014.6 mb - 0.00 in0.0 mm 0.00 in0.0 mm
07:00 PM 50.4°F10.2°C 39.5°F4.2°C 66% 1.2 mph E1.9 kmh E 3.5 mph5.6 kmh 29.95 in1014.2 mb - 0.00 in0.0 mm 0.00 in0.0 mm
08:00 PM 47.4°F8.6°C 38.4°F3.6°C 71% Calm Calm 1.2 mph1.9 kmh 29.95 in1014.2 mb - 0.00 in0.0 mm 0.00 in0.0 mm
09:00 PM 45.5°F7.5°C 38.0°F3.3°C 75% Calm Calm 1.2 mph1.9 kmh 29.93 in1013.5 mb - 0.00 in0.0 mm 0.00 in0.0 mm
10:00 PM 42.9°F6.1°C 36.8°F2.7°C 79% Calm Calm 1.2 mph1.9 kmh 29.90 in1012.5 mb - 0.00 in0.0 mm 0.00 in0.0 mm
11:00 PM 40.7°F4.8°C 36.2°F2.3°C 84% Calm Calm -- 29.87 in1011.5 mb - 0.00 in0.0 mm 0.00 in0.0 mm